createdAt,value
2019-04-14T00:00:08.004Z,1.92
2019-04-14T00:01:08.625Z,2.04
2019-04-14T00:02:07.951Z,2.07
2019-04-14T00:03:08.663Z,2.04
2019-04-14T00:04:07.893Z,1.97
2019-04-14T00:05:08.236Z,2.02
2019-04-14T00:06:09.022Z,1.92
2019-04-14T00:07:08.014Z,2.04
2019-04-14T00:08:08.785Z,2.07
2019-04-14T00:09:07.752Z,2.06
2019-04-14T00:10:07.724Z,2.07
2019-04-14T00:11:08.313Z,2.02
2019-04-14T00:12:09.023Z,1.91
2019-04-14T00:13:08.865Z,2.02
2019-04-14T00:14:07.614Z,2.06
2019-04-14T00:15:19.287Z,2.06
2019-04-14T00:16:07.554Z,2.13
2019-04-14T00:17:08.498Z,2.18
2019-04-14T00:18:07.560Z,2.18
2019-04-14T00:19:08.676Z,2.18
2019-04-14T00:20:07.449Z,2.22
2019-04-14T00:21:08.650Z,2.26
2019-04-14T00:22:07.388Z,2.25
2019-04-14T00:23:08.656Z,2.26
2019-04-14T00:24:07.403Z,2.24
2019-04-14T00:25:08.563Z,2.29
2019-04-14T00:26:07.291Z,2.28
2019-04-14T00:27:08.445Z,2.25
2019-04-14T00:28:07.398Z,2.26
2019-04-14T00:29:07.192Z,2.17
2019-04-14T00:30:07.597Z,2.24
2019-04-14T00:31:07.134Z,2.24
2019-04-14T00:32:07.364Z,2.25
2019-04-14T00:33:08.373Z,2.29
2019-04-14T00:34:07.303Z,2.26
2019-04-14T00:35:08.147Z,2.33
2019-04-14T00:36:06.995Z,2.26
2019-04-14T00:37:07.745Z,2.26
2019-04-14T00:38:06.939Z,2.26
2019-04-14T00:39:07.489Z,2.29
2019-04-14T00:40:06.886Z,2.26
2019-04-14T00:41:07.177Z,2.28
2019-04-14T00:42:08.176Z,2.26
2019-04-14T00:43:07.009Z,2.25
2019-04-14T00:44:07.822Z,2.36
2019-04-14T00:45:06.988Z,2.29
2019-04-14T00:46:07.869Z,2.33
2019-04-14T00:47:07.106Z,2.33
2019-04-14T00:48:11.818Z,2.33
2019-04-14T00:49:07.066Z,2.32
2019-04-14T00:50:07.893Z,2.36
2019-04-14T00:51:06.969Z,2.32
2019-04-14T00:52:07.862Z,2.31
2019-04-14T00:53:07.652Z,2.24
2019-04-14T00:54:06.704Z,2.31
2019-04-14T00:55:07.563Z,2.32
2019-04-14T00:56:06.444Z,2.28
2019-04-14T00:57:07.312Z,2.26
2019-04-14T00:58:06.381Z,2.28
2019-04-14T00:59:07.115Z,2.22
2019-04-14T01:00:06.347Z,2.13
2019-04-14T01:01:06.959Z,2.11
2019-04-14T01:02:06.288Z,2.07
2019-04-14T01:03:06.910Z,2.13
2019-04-14T01:04:06.220Z,1.99
2019-04-14T01:05:06.619Z,2.07
2019-04-14T01:06:07.530Z,2.02
2019-04-14T01:07:06.526Z,2.02
2019-04-14T01:08:07.272Z,2.00
2019-04-14T01:09:06.414Z,1.99
2019-04-14T01:10:06.098Z,1.85
2019-04-14T01:11:07.309Z,1.77
2019-04-14T01:12:06.107Z,1.81
2019-04-14T01:13:09.338Z,1.81
2019-04-14T01:14:05.950Z,1.76
2019-04-14T01:15:07.095Z,1.89
2019-04-14T01:16:13.225Z,1.78
2019-04-14T01:17:06.926Z,1.71
2019-04-14T01:18:05.850Z,1.76
2019-04-14T01:19:06.811Z,1.77
2019-04-14T01:20:05.766Z,1.63
2019-04-14T01:21:06.689Z,1.71
2019-04-14T01:22:05.713Z,1.63
2019-04-14T01:23:06.337Z,1.71
2019-04-14T01:24:05.647Z,1.70
2019-04-14T01:25:06.417Z,1.63
2019-04-14T01:26:05.593Z,1.63
2019-04-14T01:27:06.062Z,1.59
2019-04-14T01:28:06.701Z,1.62
2019-04-14T01:29:05.793Z,1.56
2019-04-14T01:30:06.557Z,1.59
2019-04-14T01:31:05.607Z,1.66
2019-04-14T01:32:06.509Z,1.62
2019-04-14T01:33:05.512Z,1.62
2019-04-14T01:34:06.336Z,1.59
2019-04-14T01:35:05.413Z,1.55
2019-04-14T01:36:06.093Z,1.62
2019-04-14T01:37:05.280Z,1.58
2019-04-14T01:38:05.882Z,1.60
2019-04-14T01:39:05.227Z,1.67
2019-04-14T01:40:05.331Z,1.60
2019-04-14T01:41:06.322Z,1.56
2019-04-14T01:42:05.139Z,1.55
2019-04-14T01:43:05.931Z,1.60
2019-04-14T01:44:05.085Z,1.58
2019-04-14T01:45:05.663Z,1.71
2019-04-14T01:46:11.627Z,1.59
2019-04-14T01:47:05.270Z,1.60
2019-04-14T01:48:05.982Z,1.58
2019-04-14T01:49:05.092Z,1.50
2019-04-14T01:50:05.913Z,1.60
2019-04-14T01:51:04.950Z,1.58
2019-04-14T01:52:05.699Z,1.62
2019-04-14T01:53:05.387Z,1.60
2019-04-14T01:54:05.851Z,1.67
2019-04-14T01:55:04.825Z,1.53
2019-04-14T01:56:05.626Z,1.66
2019-04-14T01:57:04.720Z,1.66
2019-04-14T01:58:05.376Z,1.60
2019-04-14T01:59:04.663Z,1.63
2019-04-14T02:00:05.357Z,1.59
2019-04-14T02:01:04.604Z,1.68
2019-04-14T02:02:05.115Z,1.67
2019-04-14T02:03:04.540Z,1.66
2019-04-14T02:04:04.949Z,1.59
2019-04-14T02:05:04.503Z,1.60
2019-04-14T02:06:04.795Z,1.60
2019-04-14T02:07:04.429Z,1.58
2019-04-14T02:08:04.512Z,1.56
2019-04-14T02:09:05.359Z,1.59
2019-04-14T02:10:04.337Z,1.60
2019-04-14T02:11:05.230Z,1.58
2019-04-14T02:12:04.286Z,1.56
2019-04-14T02:13:04.991Z,1.58
2019-04-14T02:14:04.229Z,1.59
2019-04-14T02:15:11.394Z,1.52
2019-04-14T02:17:00.534Z,1.56
2019-04-14T02:17:57.036Z,1.60
2019-04-14T02:19:50.291Z,1.58
2019-04-14T02:20:51.056Z,1.50
2019-04-14T02:21:49.995Z,1.60
2019-04-14T02:22:50.630Z,1.58
2019-04-14T02:23:49.898Z,1.44
2019-04-14T02:24:50.306Z,1.44
2019-04-14T02:25:49.738Z,1.48
2019-04-14T02:26:50.283Z,1.55
2019-04-14T02:27:49.679Z,1.48
2019-04-14T02:28:50.414Z,1.49
2019-04-14T02:29:49.624Z,1.45
2019-04-14T02:31:00.104Z,1.42
2019-04-14T02:32:17.535Z,1.52
2019-04-14T02:33:23.604Z,1.35
2019-04-14T02:34:17.479Z,1.37
2019-04-14T02:36:27.365Z,1.38
2019-04-14T02:38:23.188Z,1.34
2019-04-14T02:40:18.122Z,1.38
2019-04-14T02:41:18.731Z,1.40
2019-04-14T02:45:24.572Z,1.31
2019-04-14T02:46:14.989Z,1.28
2019-04-14T02:47:38.883Z,1.31
2019-04-14T02:48:31.506Z,1.32
2019-04-14T02:49:11.186Z,1.31
2019-04-14T02:50:10.911Z,1.26
2019-04-14T02:51:19.389Z,1.24
2019-04-14T02:53:18.502Z,1.31
2019-04-14T02:54:32.960Z,1.22
2019-04-14T02:55:08.776Z,1.22
2019-04-14T02:56:21.934Z,1.13
2019-04-14T02:57:20.502Z,1.08
2019-04-14T02:58:20.383Z,1.19
2019-04-14T02:59:11.698Z,1.06
2019-04-14T03:00:16.744Z,1.06
2019-04-14T03:01:24.095Z,1.13
2019-04-14T03:02:22.890Z,1.16
2019-04-14T03:03:16.881Z,1.20
2019-04-14T03:04:14.675Z,1.17
2019-04-14T03:05:09.739Z,1.14
2019-04-14T03:06:20.392Z,1.14
2019-04-14T03:07:19.043Z,1.06
2019-04-14T03:08:17.189Z,1.04
2019-04-14T03:09:24.348Z,0.98
2019-04-14T03:10:20.393Z,1.06
2019-04-14T03:12:19.086Z,1.02
2019-04-14T03:13:21.075Z,1.05
2019-04-14T03:14:19.757Z,1.01
2019-04-14T03:15:20.077Z,1.05
2019-04-14T03:16:21.722Z,1.01
2019-04-14T03:17:24.818Z,1.02
2019-04-14T03:19:16.509Z,1.02
2019-04-14T03:20:20.128Z,1.05
2019-04-14T03:21:19.498Z,0.88
2019-04-14T03:22:25.519Z,1.06
2019-04-14T03:23:18.938Z,0.95
2019-04-14T03:24:13.132Z,0.87
2019-04-14T03:25:03.070Z,0.83
2019-04-14T03:26:15.623Z,0.96
2019-04-14T03:27:13.551Z,1.01
2019-04-14T03:28:06.984Z,0.87
2019-04-14T03:29:19.209Z,0.84
2019-04-14T03:30:39.287Z,0.95
2019-04-14T03:31:47.260Z,0.88
2019-04-14T03:32:26.529Z,0.88
2019-04-14T03:33:43.503Z,0.95
2019-04-14T03:35:35.059Z,1.13
2019-04-14T03:36:44.134Z,1.06
2019-04-14T03:38:18.916Z,0.99
2019-04-14T03:39:33.476Z,1.04
2019-04-14T03:40:09.980Z,1.04
2019-04-14T03:41:17.528Z,1.06
2019-04-14T03:43:18.705Z,1.16
2019-04-14T03:44:37.790Z,1.20
2019-04-14T03:45:20.690Z,1.16
2019-04-14T03:47:13.802Z,1.14
2019-04-14T03:49:22.032Z,1.14
2019-04-14T03:50:13.686Z,1.10
2019-04-14T03:51:18.922Z,1.13
2019-04-14T03:52:13.080Z,1.13
2019-04-14T03:53:15.868Z,1.17
2019-04-14T03:54:23.590Z,1.14
2019-04-14T03:55:01.232Z,1.16
2019-04-14T03:55:54.537Z,1.30
2019-04-14T03:56:47.131Z,1.26
2019-04-14T03:57:47.651Z,1.12
2019-04-14T03:58:47.071Z,1.17
2019-04-14T03:59:47.798Z,1.19
2019-04-14T04:00:47.026Z,1.14
2019-04-14T04:01:47.883Z,1.14
2019-04-14T04:02:46.959Z,1.26
2019-04-14T04:03:47.857Z,1.32
2019-04-14T04:04:46.903Z,1.24
2019-04-14T04:05:47.862Z,1.24
2019-04-14T04:06:46.845Z,1.32
2019-04-14T04:07:47.478Z,1.37
2019-04-14T04:08:46.785Z,1.37
2019-04-14T04:09:47.536Z,1.40
2019-04-14T04:10:46.733Z,1.44
2019-04-14T04:11:47.627Z,1.41
2019-04-14T04:12:46.672Z,1.40
2019-04-14T04:13:47.689Z,1.31
2019-04-14T04:14:46.615Z,1.38
2019-04-14T04:15:47.582Z,1.49
2019-04-14T04:16:46.557Z,1.48
2019-04-14T04:17:47.288Z,1.42
2019-04-14T04:18:56.469Z,1.48
2019-04-14T04:19:46.981Z,1.38
2019-04-14T04:20:47.648Z,1.41
2019-04-14T04:21:46.640Z,1.45
2019-04-14T04:22:47.572Z,1.37
2019-04-14T04:23:46.822Z,1.44
2019-04-14T04:24:47.504Z,1.35
2019-04-14T04:25:46.578Z,1.48
2019-04-14T04:26:47.222Z,1.40
2019-04-14T04:27:46.248Z,1.35
2019-04-14T04:28:47.157Z,1.34
2019-04-14T04:29:46.308Z,1.30
2019-04-14T04:30:47.002Z,1.34
2019-04-14T04:31:46.218Z,1.30
2019-04-14T04:32:46.904Z,1.26
2019-04-14T04:33:46.072Z,1.20
2019-04-14T04:34:46.645Z,1.24
2019-04-14T04:35:46.009Z,1.28
2019-04-14T04:36:46.359Z,1.24
2019-04-14T04:37:45.955Z,1.28
2019-04-14T04:38:46.321Z,1.26
2019-04-14T04:39:45.898Z,1.38
2019-04-14T04:40:46.129Z,1.35
2019-04-14T04:41:45.843Z,1.40
2019-04-14T04:42:45.896Z,1.32
2019-04-14T04:43:45.783Z,1.38
2019-04-14T04:44:46.357Z,1.38
2019-04-14T04:45:45.730Z,1.40
2019-04-14T04:46:45.993Z,1.35
2019-04-14T04:47:46.915Z,1.32
2019-04-14T04:48:57.975Z,1.38
2019-04-14T04:49:46.773Z,1.32
2019-04-14T04:50:45.593Z,1.30
2019-04-14T04:51:46.555Z,1.37
2019-04-14T04:52:45.532Z,1.38
2019-04-14T04:53:46.215Z,1.38
2019-04-14T04:54:45.475Z,1.38
2019-04-14T04:55:46.074Z,1.37
2019-04-14T04:56:45.407Z,1.38
2019-04-14T04:57:45.985Z,1.37
2019-04-14T04:58:45.649Z,1.35
2019-04-14T04:59:45.373Z,1.32
2019-04-14T05:00:47.356Z,1.28
2019-04-14T05:01:45.270Z,1.37
2019-04-14T05:02:46.068Z,1.41
2019-04-14T05:03:45.215Z,1.49
2019-04-14T05:04:46.029Z,1.45
2019-04-14T05:05:45.155Z,1.40
2019-04-14T05:06:45.911Z,1.44
2019-04-14T05:07:45.115Z,1.45
2019-04-14T05:08:45.556Z,1.38
2019-04-14T05:09:45.053Z,1.53
2019-04-14T05:10:45.692Z,1.50
2019-04-14T05:11:44.985Z,1.56
2019-04-14T05:12:45.680Z,1.58
2019-04-14T05:13:44.927Z,1.70
2019-04-14T05:14:45.590Z,1.59
2019-04-14T05:15:44.872Z,1.62
2019-04-14T05:16:46.048Z,1.66
2019-04-14T05:17:45.278Z,1.59
2019-04-14T05:18:44.782Z,1.67
2019-04-14T05:19:45.493Z,1.67
2019-04-14T05:20:44.738Z,1.60
2019-04-14T05:21:45.204Z,1.67
2019-04-14T05:22:44.668Z,1.70
2019-04-14T05:23:45.328Z,1.77
2019-04-14T05:24:44.619Z,1.78
2019-04-14T05:25:45.228Z,1.80
2019-04-14T05:26:44.559Z,1.88
2019-04-14T05:27:45.222Z,1.78
2019-04-14T05:28:44.505Z,1.95
2019-04-14T05:29:45.099Z,2.02
2019-04-14T05:30:45.725Z,2.00
2019-04-14T05:31:44.732Z,2.14
2019-04-14T05:32:45.446Z,2.28
2019-04-14T05:33:44.750Z,2.33
2019-04-14T05:34:45.405Z,2.32
2019-04-14T05:35:44.591Z,2.29
2019-04-14T05:36:45.328Z,2.39
2019-04-14T05:37:44.440Z,2.29
2019-04-14T05:38:45.005Z,2.31
2019-04-14T05:39:44.209Z,2.39
2019-04-14T05:40:45.053Z,2.49
2019-04-14T05:41:56.738Z,2.47
2019-04-14T05:42:45.067Z,2.56
2019-04-14T05:43:51.415Z,2.56
2019-04-14T05:44:44.802Z,2.56
2019-04-14T05:45:44.028Z,2.51
2019-04-14T05:46:44.648Z,2.60
2019-04-14T05:47:43.970Z,2.56
2019-04-14T05:48:44.677Z,2.54
2019-04-14T05:49:48.257Z,2.64
2019-04-14T05:50:44.377Z,2.75
2019-04-14T05:51:43.860Z,2.61
2019-04-14T05:52:44.714Z,2.79
2019-04-14T05:53:43.921Z,2.72
2019-04-14T05:54:44.731Z,2.72
2019-04-14T05:55:43.854Z,2.82
2019-04-14T05:56:44.756Z,3.04
2019-04-14T05:57:43.830Z,2.92
2019-04-14T05:58:44.634Z,3.14
2019-04-14T05:59:44.055Z,3.32
2019-04-14T06:00:43.779Z,3.58
2019-04-14T06:01:44.308Z,3.81
2019-04-14T06:02:44.121Z,4.10
2019-04-14T06:03:43.536Z,4.32
2019-04-14T06:04:43.967Z,4.41
2019-04-14T06:05:43.473Z,4.35
2019-04-14T06:06:43.454Z,4.37
2019-04-14T06:07:43.418Z,4.44
2019-04-14T06:08:43.402Z,4.37
2019-04-14T06:09:43.372Z,4.44
2019-04-14T06:10:43.344Z,4.31
2019-04-14T06:11:43.322Z,4.41
2019-04-14T06:12:43.291Z,4.60
2019-04-14T06:13:43.268Z,4.68
2019-04-14T06:14:43.244Z,4.62
2019-04-14T06:15:43.217Z,4.52
2019-04-14T06:16:43.190Z,4.53
2019-04-14T06:17:43.167Z,4.41
2019-04-14T06:18:43.144Z,4.34
2019-04-14T06:19:50.293Z,4.22
2019-04-14T06:21:43.394Z,4.35
2019-04-14T06:22:35.963Z,4.48
2019-04-14T06:24:29.862Z,4.96
2019-04-14T06:25:29.832Z,5.07
2019-04-14T06:27:22.729Z,4.99
2019-04-14T06:28:22.676Z,5.11
2019-04-14T06:30:15.582Z,5.30
2019-04-14T06:31:15.526Z,5.43
2019-04-14T06:33:08.406Z,5.89
2019-04-14T06:34:08.379Z,6.04
2019-04-14T06:35:08.351Z,6.26
2019-04-14T06:36:08.326Z,6.44
2019-04-14T06:37:08.305Z,6.64
2019-04-14T06:38:08.285Z,6.69
2019-04-14T06:39:08.258Z,6.63
2019-04-14T06:40:08.230Z,6.62
2019-04-14T06:41:08.211Z,6.56
2019-04-14T06:42:08.189Z,6.45
2019-04-14T06:43:08.162Z,6.64
2019-04-14T06:44:08.135Z,6.45
2019-04-14T06:45:08.114Z,6.51
2019-04-14T06:46:08.088Z,6.57
2019-04-14T06:47:08.076Z,6.48
2019-04-14T06:48:08.042Z,6.56
2019-04-14T06:49:08.021Z,6.45
2019-04-14T06:50:07.997Z,6.62
2019-04-14T06:51:07.975Z,6.84
2019-04-14T06:52:07.950Z,6.79
2019-04-14T06:53:07.927Z,6.69
2019-04-14T06:54:07.904Z,6.59
2019-04-14T06:55:07.882Z,6.52
2019-04-14T06:56:07.859Z,7.11
2019-04-14T06:57:07.841Z,7.72
2019-04-14T06:58:07.814Z,7.98
2019-04-14T06:59:07.793Z,8.45
2019-04-14T07:00:07.770Z,8.89
2019-04-14T07:01:07.747Z,8.97
2019-04-14T07:02:08.698Z,8.55
2019-04-14T07:03:07.703Z,8.41
2019-04-14T07:04:07.683Z,8.24
2019-04-14T07:05:07.661Z,8.63
2019-04-14T07:06:07.639Z,9.02
2019-04-14T07:07:07.619Z,9.25
2019-04-14T07:08:07.597Z,9.54
2019-04-14T07:09:07.577Z,9.94
2019-04-14T07:10:07.558Z,10.31
2019-04-14T07:11:07.537Z,10.44
2019-04-14T07:12:07.602Z,10.68
2019-04-14T07:13:07.558Z,10.54
2019-04-14T07:14:07.480Z,10.34
2019-04-14T07:15:07.458Z,10.63
2019-04-14T07:16:07.443Z,10.22
2019-04-14T07:17:07.422Z,9.80
2019-04-14T07:18:07.403Z,9.64
2019-04-14T07:19:07.382Z,9.99
2019-04-14T07:20:07.363Z,9.86
2019-04-14T07:21:07.342Z,9.87
2019-04-14T07:22:07.326Z,9.91
2019-04-14T07:23:07.307Z,10.13
2019-04-14T07:24:07.288Z,10.07
2019-04-14T07:25:07.268Z,9.99
2019-04-14T07:26:07.250Z,10.26
2019-04-14T07:27:07.240Z,10.57
2019-04-14T07:28:07.215Z,10.22
2019-04-14T07:29:07.197Z,10.15
2019-04-14T07:30:07.202Z,10.01
2019-04-14T07:31:07.163Z,10.01
2019-04-14T07:32:07.146Z,10.35
2019-04-14T07:33:07.128Z,10.90
2019-04-14T07:34:07.113Z,10.84
2019-04-14T07:35:07.092Z,10.59
2019-04-14T07:36:07.077Z,10.28
2019-04-14T07:37:07.058Z,10.79
2019-04-14T07:38:07.042Z,10.63
2019-04-14T07:39:07.026Z,10.17
2019-04-14T07:40:07.010Z,10.02
2019-04-14T07:41:06.994Z,9.55
2019-04-14T07:42:06.976Z,9.41
2019-04-14T07:43:06.959Z,9.72
2019-04-14T07:44:06.934Z,9.65
2019-04-14T07:45:06.923Z,9.58
2019-04-14T07:46:06.908Z,9.14
2019-04-14T07:47:06.887Z,9.31
2019-04-14T07:48:06.878Z,9.18
2019-04-14T07:49:06.859Z,9.06
2019-04-14T07:50:14.581Z,8.87
2019-04-14T07:51:06.823Z,8.87
2019-04-14T07:52:06.804Z,9.08
2019-04-14T07:53:06.791Z,9.10
2019-04-14T07:54:06.772Z,9.13
2019-04-14T07:55:06.758Z,9.03
2019-04-14T07:56:06.746Z,8.87
2019-04-14T07:57:06.724Z,8.67
2019-04-14T07:58:06.707Z,8.92
2019-04-14T07:59:06.694Z,8.85
2019-04-14T08:00:06.684Z,8.71
2019-04-14T08:01:06.661Z,8.78
2019-04-14T08:02:06.641Z,9.03
2019-04-14T08:03:06.625Z,8.99
2019-04-14T08:04:06.603Z,8.60
2019-04-14T08:05:06.591Z,8.58
2019-04-14T08:06:06.569Z,8.84
2019-04-14T08:07:06.560Z,9.43
2019-04-14T08:08:06.540Z,9.51
2019-04-14T08:09:06.523Z,9.25
2019-04-14T08:10:06.508Z,9.32
2019-04-14T08:11:06.490Z,9.16
2019-04-14T08:12:06.474Z,9.51
2019-04-14T08:13:06.458Z,9.82
2019-04-14T08:14:06.438Z,10.23
2019-04-14T08:15:06.424Z,10.28
2019-04-14T08:16:06.408Z,10.12
2019-04-14T08:17:06.390Z,9.87
2019-04-14T08:18:06.373Z,9.73
2019-04-14T08:19:06.360Z,9.64
2019-04-14T08:20:06.347Z,9.59
2019-04-14T08:21:06.323Z,10.15
2019-04-14T08:22:06.310Z,10.25
2019-04-14T08:23:06.294Z,10.16
2019-04-14T08:24:06.278Z,10.09
2019-04-14T08:25:06.261Z,10.57
2019-04-14T08:26:06.246Z,10.59
2019-04-14T08:27:06.224Z,10.59
2019-04-14T08:28:06.214Z,10.87
2019-04-14T08:29:06.198Z,10.86
2019-04-14T08:30:06.183Z,10.89
2019-04-14T08:31:06.167Z,11.25
2019-04-14T08:32:06.156Z,11.32
2019-04-14T08:33:06.131Z,11.47
2019-04-14T08:34:06.119Z,11.83
2019-04-14T08:35:06.110Z,11.23
2019-04-14T08:36:06.095Z,10.89
2019-04-14T08:37:06.083Z,10.56
2019-04-14T08:38:06.064Z,11.08
2019-04-14T08:39:06.051Z,11.48
2019-04-14T08:40:06.043Z,11.57
2019-04-14T08:41:06.025Z,11.78
2019-04-14T08:42:06.009Z,11.23
2019-04-14T08:43:05.991Z,10.53
2019-04-14T08:44:05.986Z,10.64
2019-04-14T08:45:05.966Z,10.54
2019-04-14T08:46:05.964Z,10.63
2019-04-14T08:47:05.935Z,10.90
2019-04-14T08:48:05.922Z,11.41
2019-04-14T08:49:05.913Z,11.55
2019-04-14T08:50:05.894Z,12.09
2019-04-14T08:51:05.882Z,12.25
2019-04-14T08:52:05.867Z,12.09
2019-04-14T08:53:05.851Z,11.23
2019-04-14T08:54:05.838Z,10.93
2019-04-14T08:55:05.828Z,10.81
2019-04-14T08:56:05.811Z,10.68
2019-04-14T08:57:05.797Z,11.15
2019-04-14T08:58:05.786Z,11.50
2019-04-14T08:59:05.769Z,11.40
2019-04-14T09:00:05.757Z,11.32
2019-04-14T09:01:05.743Z,12.27
2019-04-14T09:02:05.732Z,12.80
2019-04-14T09:03:05.710Z,13.00
2019-04-14T09:04:05.703Z,13.59
2019-04-14T09:05:05.691Z,13.46
2019-04-14T09:06:05.675Z,13.92
2019-04-14T09:07:05.666Z,13.97
2019-04-14T09:08:05.648Z,14.22
2019-04-14T09:09:07.348Z,13.90
2019-04-14T09:10:05.624Z,13.16
2019-04-14T09:11:05.617Z,11.80
2019-04-14T09:12:15.363Z,11.94
2019-04-14T09:13:05.587Z,12.21
2019-04-14T09:14:05.575Z,12.25
2019-04-14T09:15:05.562Z,12.29
2019-04-14T09:16:05.546Z,12.27
2019-04-14T09:17:05.535Z,11.72
2019-04-14T09:18:05.519Z,11.57
2019-04-14T09:19:07.756Z,11.19
2019-04-14T09:20:05.496Z,11.26
2019-04-14T09:21:05.484Z,11.12
2019-04-14T09:22:05.472Z,10.92
2019-04-14T09:23:05.461Z,11.22
2019-04-14T09:24:05.451Z,10.69
2019-04-14T09:25:05.435Z,10.64
2019-04-14T09:26:05.422Z,10.59
2019-04-14T09:27:05.451Z,10.71
2019-04-14T09:28:05.393Z,10.60
2019-04-14T09:29:05.381Z,10.69
2019-04-14T09:30:05.374Z,10.90
2019-04-14T09:31:05.353Z,10.59
2019-04-14T09:32:05.339Z,10.44
2019-04-14T09:33:05.324Z,10.40
2019-04-14T09:34:05.313Z,10.67
2019-04-14T09:35:05.300Z,10.57
2019-04-14T09:36:05.284Z,10.51
2019-04-14T09:37:05.272Z,10.13
2019-04-14T09:38:05.259Z,9.80
2019-04-14T09:39:05.242Z,9.41
2019-04-14T09:40:05.232Z,9.62
2019-04-14T09:41:05.215Z,9.69
2019-04-14T09:42:05.258Z,9.68
2019-04-14T09:43:05.188Z,9.40
2019-04-14T09:44:05.167Z,8.92
2019-04-14T09:45:05.150Z,8.63
2019-04-14T09:46:05.137Z,8.84
2019-04-14T09:47:05.117Z,9.11
2019-04-14T09:48:05.106Z,9.37
2019-04-14T09:49:05.088Z,9.26
2019-04-14T09:50:05.076Z,8.85
2019-04-14T09:51:05.405Z,8.60
2019-04-14T09:52:05.039Z,8.41
2019-04-14T09:53:05.019Z,8.53
2019-04-14T09:54:05.008Z,8.41
2019-04-14T09:55:04.992Z,8.58
2019-04-14T09:56:04.974Z,8.88
2019-04-14T09:57:04.956Z,9.23
2019-04-14T09:58:04.946Z,9.10
2019-04-14T09:59:04.920Z,9.10
2019-04-14T10:00:04.903Z,8.85
2019-04-14T10:01:04.894Z,8.79
2019-04-14T10:02:04.892Z,8.82
2019-04-14T10:03:04.852Z,8.69
2019-04-14T10:04:04.849Z,8.66
2019-04-14T10:05:04.816Z,8.49
2019-04-14T10:06:04.805Z,8.60
2019-04-14T10:07:04.788Z,8.27
2019-04-14T10:08:04.759Z,8.28
2019-04-14T10:09:04.742Z,8.48
2019-04-14T10:10:04.731Z,8.78
2019-04-14T10:11:04.713Z,9.11
2019-04-14T10:12:11.893Z,9.26
2019-04-14T10:14:04.978Z,9.34
2019-04-14T10:15:04.732Z,9.32
2019-04-14T10:16:50.448Z,8.82
2019-04-14T10:17:57.608Z,8.55
2019-04-14T10:19:43.343Z,8.42
2019-04-14T10:20:43.297Z,8.71
2019-04-14T10:21:43.279Z,8.61
2019-04-14T10:22:43.268Z,8.89
2019-04-14T10:23:43.245Z,8.95
2019-04-14T10:24:43.224Z,9.02
2019-04-14T10:25:43.222Z,9.22
2019-04-14T10:26:43.187Z,9.19
2019-04-14T10:27:43.172Z,9.18
2019-04-14T10:28:43.148Z,9.22
2019-04-14T10:29:43.133Z,8.73
2019-04-14T10:30:43.110Z,8.53
2019-04-14T10:31:43.096Z,8.51
2019-04-14T10:32:43.077Z,8.66
2019-04-14T10:33:43.057Z,8.82
2019-04-14T10:34:43.041Z,8.94
2019-04-14T10:35:43.024Z,8.84
2019-04-14T10:36:43.005Z,8.52
2019-04-14T10:37:42.983Z,8.26
2019-04-14T10:38:42.968Z,8.28
2019-04-14T10:39:42.948Z,8.33
2019-04-14T10:40:42.928Z,7.94
2019-04-14T10:41:42.911Z,8.05
2019-04-14T10:42:42.890Z,7.72
2019-04-14T10:43:42.871Z,7.77
2019-04-14T10:44:42.854Z,7.83
2019-04-14T10:45:42.831Z,7.63
2019-04-14T10:46:42.814Z,7.72
2019-04-14T10:47:42.794Z,7.69
2019-04-14T10:48:42.774Z,7.85
2019-04-14T10:49:42.757Z,7.79
2019-04-14T10:50:42.734Z,7.61
2019-04-14T10:51:42.716Z,7.38
2019-04-14T10:52:42.695Z,7.25
2019-04-14T10:53:42.674Z,7.06
2019-04-14T10:54:42.650Z,7.03
2019-04-14T10:55:42.635Z,7.11
2019-04-14T10:56:42.609Z,7.17
2019-04-14T10:57:42.590Z,7.21
2019-04-14T10:58:42.572Z,7.35
2019-04-14T10:59:42.554Z,7.21
2019-04-14T11:00:42.528Z,7.21
2019-04-14T11:01:42.513Z,7.40
2019-04-14T11:02:42.489Z,7.43
2019-04-14T11:03:42.472Z,7.56
2019-04-14T11:04:42.442Z,7.39
2019-04-14T11:05:42.502Z,7.47
2019-04-14T11:06:42.482Z,7.28
2019-04-14T11:07:42.454Z,6.95
2019-04-14T11:08:42.430Z,6.78
2019-04-14T11:09:42.414Z,6.70
2019-04-14T11:10:42.315Z,6.72
2019-04-14T11:11:42.295Z,6.79
2019-04-14T11:12:42.351Z,6.74
2019-04-14T11:13:42.319Z,6.63
2019-04-14T11:14:42.306Z,6.69
2019-04-14T11:15:42.278Z,6.78
2019-04-14T11:16:42.257Z,6.70
2019-04-14T11:17:42.232Z,6.69
2019-04-14T11:18:42.215Z,6.57
2019-04-14T11:19:42.119Z,6.51
2019-04-14T11:20:42.100Z,6.59
2019-04-14T11:21:43.114Z,6.54
2019-04-14T11:22:42.054Z,6.36
2019-04-14T11:23:42.028Z,6.46
2019-04-14T11:24:42.001Z,6.35
2019-04-14T11:25:41.984Z,6.30
2019-04-14T11:26:41.960Z,6.46
2019-04-14T11:27:41.947Z,6.36
2019-04-14T11:28:41.917Z,6.45
2019-04-14T11:29:41.895Z,6.36
2019-04-14T11:30:41.872Z,6.35
2019-04-14T11:31:41.849Z,6.27
2019-04-14T11:32:41.828Z,6.12
2019-04-14T11:33:41.804Z,6.11
2019-04-14T11:34:41.782Z,6.22
2019-04-14T11:35:41.758Z,6.35
2019-04-14T11:36:41.754Z,6.44
2019-04-14T11:37:41.721Z,6.56
2019-04-14T11:38:41.702Z,6.56
2019-04-14T11:39:41.664Z,6.45
2019-04-14T11:40:41.648Z,6.42
2019-04-14T11:41:41.620Z,6.62
2019-04-14T11:42:51.795Z,6.59
2019-04-14T11:43:41.580Z,6.66
2019-04-14T11:44:41.569Z,6.44
2019-04-14T11:45:41.531Z,6.44
2019-04-14T11:46:41.509Z,6.46
2019-04-14T11:47:41.484Z,6.39
2019-04-14T11:48:41.461Z,6.39
2019-04-14T11:49:41.459Z,6.39
2019-04-14T11:50:41.417Z,6.31
2019-04-14T11:51:41.392Z,6.44
2019-04-14T11:52:41.373Z,6.35
2019-04-14T11:53:41.358Z,6.28
2019-04-14T11:54:41.324Z,6.09
2019-04-14T11:55:41.304Z,6.02
2019-04-14T11:56:41.283Z,6.11
2019-04-14T11:57:41.259Z,5.99
2019-04-14T11:58:41.242Z,6.11
2019-04-14T11:59:41.209Z,6.08
2019-04-14T12:00:41.185Z,5.90
2019-04-14T12:01:41.162Z,5.94
2019-04-14T12:02:41.141Z,5.91
2019-04-14T12:03:41.119Z,5.84
2019-04-14T12:04:41.104Z,5.82
2019-04-14T12:05:41.070Z,5.87
2019-04-14T12:06:41.049Z,5.84
2019-04-14T12:07:41.028Z,5.68
2019-04-14T12:08:40.999Z,5.65
2019-04-14T12:09:40.979Z,5.53
2019-04-14T12:10:40.955Z,5.62
2019-04-14T12:11:40.926Z,5.53
2019-04-14T12:12:40.908Z,5.47
2019-04-14T12:13:40.884Z,5.46
2019-04-14T12:14:40.865Z,5.51
2019-04-14T12:15:40.838Z,5.43
2019-04-14T12:16:40.812Z,5.41
2019-04-14T12:17:40.782Z,5.46
2019-04-14T12:18:40.764Z,5.36
2019-04-14T12:19:40.742Z,5.33
2019-04-14T12:20:40.718Z,5.41
2019-04-14T12:21:40.699Z,5.28
2019-04-14T12:22:40.674Z,5.38
2019-04-14T12:23:40.645Z,5.30
2019-04-14T12:24:40.622Z,5.43
2019-04-14T12:25:40.601Z,5.48
2019-04-14T12:26:40.569Z,5.50
2019-04-14T12:27:40.550Z,5.54
2019-04-14T12:28:40.551Z,5.61
2019-04-14T12:29:41.218Z,5.64
2019-04-14T12:30:40.477Z,5.66
2019-04-14T12:31:40.450Z,5.61
2019-04-14T12:32:40.430Z,5.61
2019-04-14T12:33:40.409Z,5.61
2019-04-14T12:34:40.377Z,5.57
2019-04-14T12:35:40.361Z,5.50
2019-04-14T12:36:40.333Z,5.50
2019-04-14T12:37:40.312Z,5.51
2019-04-14T12:38:40.286Z,5.38
2019-04-14T12:39:40.261Z,5.61
2019-04-14T12:40:40.290Z,5.62
2019-04-14T12:41:40.211Z,5.86
2019-04-14T12:42:40.191Z,5.73
2019-04-14T12:43:40.165Z,5.84
2019-04-14T12:44:40.144Z,5.72
2019-04-14T12:45:40.115Z,5.84
2019-04-14T12:46:40.103Z,5.76
2019-04-14T12:47:40.589Z,5.89
2019-04-14T12:48:40.045Z,5.91
2019-04-14T12:49:40.023Z,5.82
2019-04-14T12:50:39.999Z,5.80
2019-04-14T12:51:39.974Z,5.83
2019-04-14T12:52:39.947Z,5.97
2019-04-14T12:53:39.929Z,6.08
2019-04-14T12:54:39.902Z,6.24
2019-04-14T12:55:39.878Z,6.35
2019-04-14T12:56:39.861Z,6.57
2019-04-14T12:57:39.833Z,6.60
2019-04-14T12:58:39.806Z,6.46
2019-04-14T12:59:39.786Z,6.48
2019-04-14T13:00:39.762Z,6.27
2019-04-14T13:01:39.742Z,6.33
2019-04-14T13:02:39.740Z,6.38
2019-04-14T13:03:41.926Z,6.36
2019-04-14T13:04:39.672Z,6.66
2019-04-14T13:05:39.643Z,6.74
2019-04-14T13:06:39.620Z,6.74
2019-04-14T13:07:39.611Z,6.62
2019-04-14T13:08:39.569Z,6.79
2019-04-14T13:09:39.621Z,6.81
2019-04-14T13:10:39.529Z,6.84
2019-04-14T13:11:39.508Z,6.97
2019-04-14T13:12:39.486Z,6.99
2019-04-14T13:13:39.461Z,6.78
2019-04-14T13:14:39.445Z,6.66
2019-04-14T13:15:39.421Z,6.95
2019-04-14T13:16:39.395Z,7.32
2019-04-14T13:17:39.372Z,7.54
2019-04-14T13:18:39.350Z,8.09
2019-04-14T13:19:39.327Z,8.03
2019-04-14T13:20:39.303Z,7.58
2019-04-14T13:21:40.580Z,7.23
2019-04-14T13:22:39.263Z,6.99
2019-04-14T13:23:39.234Z,6.99
2019-04-14T13:24:39.218Z,7.13
2019-04-14T13:25:39.201Z,7.24
2019-04-14T13:26:39.176Z,7.42
2019-04-14T13:27:39.153Z,7.45
2019-04-14T13:28:39.134Z,7.33
2019-04-14T13:29:39.110Z,7.17
2019-04-14T13:30:39.094Z,7.03
2019-04-14T13:31:39.077Z,7.06
2019-04-14T13:32:39.042Z,7.13
2019-04-14T13:33:39.021Z,7.48
2019-04-14T13:34:39.002Z,7.54
2019-04-14T13:35:38.980Z,7.53
2019-04-14T13:36:38.958Z,7.32
2019-04-14T13:37:38.947Z,7.40